Latest Weather Observations for Portland Airport

IDV60801

Issued at 9:31 pm EDT Thursday 11 February 2016 (issued every 30 minutes, with the page automatically refreshed every 10 minutes)

About weather observations | Map of weather stations | Latest weather observations for VIC | Other Formats
Station Details ID: 090171 Name: CASHMORE AIRPORT Lat: -38.31 Lon: 141.47 Height: 80.9 m
Data from the previous 72 hours. | See also: Recent months at Portland Airport
Date/Time
EDT
Temp
°C
App
Temp
°C
Dew
Point
Rel
Hum
%
Delta-T
°C
Wind Press
QNH
hPa
Press
MSL
hPa
Rain
since 9 am
mm
Dir
 
Spd
km/h
Gust
km/h
Spd
kts
Gust
kts
11/09:30pm 16.8 15.5 12.5 76 2.4 SE 11 15 6 8 1018.2 1018.0 0.0
11/09:00pm 17.4 15.8 12.7 74 2.6 SE 13 20 7 11 1018.2 1018.0 0.0
11/08:30pm 18.0 15.6 12.7 71 3.0 SE 17 24 9 13 1018.1 1017.9 0.0
11/08:00pm 18.5 15.6 12.9 70 3.1 SE 20 28 11 15 1018.1 1017.9 0.0
11/07:30pm 19.2 16.7 13.4 69 3.3 SE 19 26 10 14 1017.7 1017.5 0.0
11/07:00pm 19.3 16.7 13.3 68 3.4 SSE 19 30 10 16 1017.6 1017.4 0.0
11/06:30pm 19.4 16.8 13.3 68 3.5 SSE 19 26 10 14 1017.5 1017.3 0.0
11/06:00pm 20.8 18.3 13.5 63 4.2 S 19 30 10 16 1017.2 1017.0 0.0
11/05:30pm 20.3 17.6 12.8 62 4.3 SE 19 26 10 14 1016.8 1016.6 0.0
11/05:00pm 22.3 19.9 13.9 59 4.9 SSE 19 28 10 15 1016.7 1016.5 0.0
11/04:30pm 22.9 20.5 13.9 57 5.3 SSE 19 28 10 15 1017.1 1016.9 0.0
11/04:00pm 21.3 18.9 13.7 62 4.4 S 19 28 10 15 1017.1 1016.9 0.0
11/03:30pm 22.2 19.7 14.1 60 4.7 SSE 20 30 11 16 1017.2 1017.0 0.0
11/03:00pm 21.6 18.9 13.0 58 4.9 SSE 19 28 10 15 1017.2 1017.0 0.0
11/02:30pm 21.8 19.9 14.2 62 4.5 SSE 17 30 9 16 1017.5 1017.3 0.0
11/02:00pm 20.8 18.5 14.0 65 3.9 S 19 30 10 16 1017.7 1017.5 0.0
11/01:30pm 21.0 18.8 13.2 61 4.5 S 17 28 9 15 1017.7 1017.5 0.0
11/01:00pm 21.9 19.9 14.0 61 4.6 SSE 17 24 9 13 1017.7 1017.5 0.0
11/12:30pm 20.7 18.6 13.6 64 4.1 S 17 24 9 13 1017.8 1017.6 0.0
11/12:00pm 21.7 19.4 11.7 53 5.6 SE 15 24 8 13 1018.1 1017.9 0.0
11/11:30am 21.1 19.0 12.3 57 5.0 ESE 15 26 8 14 1017.9 1017.7 0.0
11/11:00am 20.2 17.3 12.2 60 4.5 ESE 19 26 10 14 1017.9 1017.7 0.0
11/10:30am 20.0 17.9 12.5 62 4.2 SE 15 24 8 13 1018.1 1017.9 0.0
11/10:00am 19.5 17.9 13.9 70 3.2 SSE 15 20 8 11 1018.3 1018.1 0.0
11/09:30am 18.4 17.1 13.7 74 2.7 S 13 20 7 11 1018.6 1018.4 0.0
11/09:00am 17.7 16.8 13.8 78 2.2 S 11 17 6 9 1018.5 1018.3 0.0
11/08:30am 17.9 17.5 14.2 79 2.1 SE 9 13 5 7 1018.1 1017.9 0.0
11/08:00am 15.9 16.2 14.4 91 0.9 SE 6 9 3 5 1017.8 1017.6 0.0
11/07:30am 13.6 14.4 12.7 94 0.5 CALM 0 6 0 3 1017.6 1017.4 0.0
11/07:04am 12.8 12.3 11.9 94 0.5 SE 6 7 3 4 1017.4 1017.2 0.0
11/07:00am 12.9 12.4 12.0 94 0.5 SE 6 9 3 5 1017.3 1017.1 0.0
11/06:41am 12.6 12.4 11.7 94 0.5 SE 4 7 2 4 1017.3 1017.1 0.0
11/06:40am 12.7 12.5 11.8 94 0.5 SE 4 7 2 4 1017.3 1017.1 0.0
11/06:30am 12.6 12.0 11.7 94 0.5 SE 6 7 3 4 1017.1 1016.9 0.0
11/06:00am 12.4 11.7 11.5 94 0.5 SE 6 7 3 4 1016.8 1016.6 0.0
11/05:30am 12.8 12.3 11.9 94 0.5 SE 6 7 3 4 1016.8 1016.6 0.0
11/05:00am 12.6 12.8 11.7 94 0.5 SE 2 7 1 4 1016.7 1016.5 0.0
11/04:30am 12.4 12.9 11.5 94 0.5 CALM 0 0 0 0 1016.6 1016.4 0.0
11/04:18am 11.9 12.2 10.8 93 0.6 CALM 0 0 0 0 1016.6 1016.4 0.0
11/04:00am 12.5 12.9 11.4 93 0.6 CALM 0 0 0 0 1016.5 1016.3 0.0
11/03:52am 12.3 12.7 11.2 93 0.6 CALM 0 0 0 0 1016.5 1016.3 0.0
11/03:30am 11.7 11.9 10.4 92 0.7 CALM 0 0 0 0 1016.6 1016.4 0.0
11/03:00am 11.8 11.9 10.2 90 0.8 CALM 0 0 0 0 1016.7 1016.5 0.0
11/02:49am 12.2 12.4 10.4 89 0.9 CALM 0 0 0 0 1016.7 1016.5 0.0
11/02:30am 12.9 13.3 11.1 89 0.9 CALM 0 2 0 1 1016.9 1016.7 0.0
11/02:00am 13.9 13.2 11.4 85 1.3 SE 6 7 3 4 1017.2 1017.0 0.0
11/01:30am 14.6 13.8 11.2 80 1.8 SE 6 7 3 4 1017.3 1017.1 0.0
11/01:00am 15.8 15.2 12.2 79 2.0 SE 7 9 4 5 1017.3 1017.1 0.0
11/12:30am 16.4 15.5 12.6 78 2.1 SE 9 13 5 7 1017.4 1017.2 0.0
11/12:00am 15.5 15.1 12.3 81 1.8 SSE 6 9 3 5 1017.3 1017.1 0.0
 
Date/Time
EDT
Temp
°C
App
Temp
°C
Dew
Point
Rel
Hum
%
Delta-T
°C
Wind Press
QNH
hPa
Press
MSL
hPa
Rain
since 9 am
mm
Dir
 
Spd
km/h
Gust
km/h
Spd
kts
Gust
kts
10/11:30pm 15.7 15.2 12.1 79 2.0 SSE 6 9 3 5 1017.4 1017.2 0.0
10/11:00pm 15.8 15.3 12.2 79 2.0 SSE 6 7 3 4 1017.6 1017.4 0.0
10/10:30pm 16.3 15.8 12.1 76 2.3 SSE 6 9 3 5 1017.5 1017.3 0.0
10/10:00pm 17.0 16.5 12.5 75 2.5 S 7 9 4 5 1017.4 1017.2 0.0
10/09:30pm 16.7 16.6 12.0 74 2.6 S 4 7 2 4 1017.3 1017.1 0.0
10/09:00pm 16.8 16.6 11.9 73 2.7 S 4 7 2 4 1017.2 1017.0 0.0
10/08:30pm 17.7 17.1 12.2 70 3.0 S 7 11 4 6 1017.1 1016.9 0.0
10/08:00pm 18.4 17.4 12.2 67 3.4 S 9 13 5 7 1017.0 1016.8 0.0
10/07:30pm 19.3 18.4 12.6 65 3.8 SSW 9 17 5 9 1016.7 1016.5 0.0
10/07:00pm 19.1 17.2 11.9 63 4.0 S 13 20 7 11 1016.5 1016.3 0.0
10/06:30pm 19.3 17.6 12.3 64 3.9 S 13 22 7 12 1016.4 1016.2 0.0
10/06:00pm 20.0 18.3 12.3 61 4.3 S 13 20 7 11 1016.2 1016.0 0.0
10/05:30pm 19.7 18.0 12.5 63 4.1 SSW 13 22 7 12 1016.1 1015.9 0.0
10/05:00pm 20.0 17.7 11.8 59 4.6 S 15 24 8 13 1016.0 1015.8 0.0
10/04:30pm 20.4 18.1 11.9 58 4.7 S 15 22 8 12 1016.0 1015.8 0.0
10/04:00pm 20.6 18.7 11.8 57 4.9 S 13 20 7 11 1016.1 1015.9 0.0
10/03:30pm 20.6 18.6 11.5 56 5.1 S 13 20 7 11 1016.3 1016.1 0.0
10/03:00pm 21.3 19.8 11.9 55 5.3 S 11 17 6 9 1016.4 1016.2 0.0
10/02:30pm 20.1 17.8 11.6 58 4.7 S 15 22 8 12 1016.6 1016.4 0.0
10/02:00pm 19.9 17.5 11.4 58 4.7 S 15 24 8 13 1016.8 1016.6 0.0
10/01:30pm 20.8 18.2 12.0 57 4.9 S 17 24 9 13 1016.8 1016.6 0.0
10/01:00pm 19.8 17.5 11.6 59 4.5 S 15 22 8 12 1016.8 1016.6 0.0
10/12:30pm 20.8 19.2 11.7 56 5.1 SSW 11 20 6 11 1017.0 1016.8 0.0
10/12:00pm 20.1 18.4 11.3 57 4.8 SE 11 19 6 10 1017.3 1017.1 0.0
10/11:30am 19.5 18.0 11.8 61 4.3 SSE 11 15 6 8 1017.6 1017.4 0.0
10/11:00am 18.4 16.3 11.2 63 3.9 S 13 19 7 10 1017.9 1017.7 0.0
10/10:30am 18.8 16.8 11.4 62 4.1 SSE 13 17 7 9 1017.9 1017.7 0.0
10/10:00am 18.1 16.0 11.2 64 3.8 SSE 13 20 7 11 1017.8 1017.6 0.0
10/09:30am 17.4 15.1 11.9 70 3.0 SSE 15 20 8 11 1017.7 1017.5 0.0
10/09:00am 17.0 15.6 12.3 74 2.6 SSE 11 19 6 10 1017.5 1017.3 0.0
10/08:30am 15.2 14.8 12.9 86 1.3 SE 7 9 4 5 1017.0 1016.8 0.0
10/08:00am 12.7 13.3 11.9 95 0.4 CALM 0 6 0 3 1016.7 1016.5 0.0
10/07:30am 10.4 10.3 9.5 94 0.5 CALM 0 0 0 0 1016.5 1016.3 0.0
10/07:22am 9.8 9.6 8.9 94 0.4 CALM 0 0 0 0 1016.5 1016.3 0.0
10/07:00am 8.9 8.4 7.8 93 0.5 CALM 0 0 0 0 1016.5 1016.3 0.0
10/06:30am 10.0 9.8 8.9 93 0.5 CALM 0 0 0 0 1016.1 1015.9 0.0
10/06:03am 10.4 10.2 9.2 92 0.6 CALM 0 0 0 0 1016.1 1015.9 0.0
10/06:00am 10.4 10.2 9.2 92 0.6 CALM 0 0 0 0 1016.1 1015.9 0.0
10/05:30am 10.9 10.9 9.7 92 0.6 CALM 0 0 0 0 1016.1 1015.9 0.0
10/05:00am 11.8 12.0 10.5 92 0.7 CALM 0 0 0 0 1016.1 1015.9 0.0
10/04:30am 11.3 10.6 10.0 92 0.7 SE 4 7 2 4 1016.2 1016.0 0.0
10/04:00am 11.2 11.1 9.6 90 0.8 CALM 0 0 0 0 1016.2 1016.0 0.0
10/03:30am 11.9 11.7 10.5 91 0.7 SE 2 7 1 4 1016.5 1016.3 0.0
10/03:00am 11.9 12.0 10.3 90 0.8 CALM 0 0 0 0 1016.7 1016.5 0.0
10/02:30am 12.6 11.7 10.8 89 0.9 SE 6 7 3 4 1016.9 1016.7 0.0
10/02:00am 12.7 11.9 11.1 90 0.8 SE 6 9 3 5 1017.5 1017.3 0.0
10/01:30am 12.1 11.0 10.7 91 0.7 SE 7 9 4 5 1017.8 1017.6 0.0
10/01:00am 11.6 10.9 10.0 90 0.8 SE 4 7 2 4 1017.9 1017.7 0.0
10/12:30am 12.2 11.1 10.1 87 1.1 SE 6 9 3 5 1017.9 1017.7 0.0
10/12:00am 12.8 11.7 10.5 86 1.2 SSE 7 9 4 5 1018.1 1017.9 0.0
 
Date/Time
EDT
Temp
°C
App
Temp
°C
Dew
Point
Rel
Hum
%
Delta-T
°C
Wind Press
QNH
hPa
Press
MSL
hPa
Rain
since 9 am
mm
Dir
 
Spd
km/h
Gust
km/h
Spd
kts
Gust
kts
09/11:30pm 13.4 12.3 10.8 84 1.4 SE 7 9 4 5 1018.4 1018.2 0.0
09/11:00pm 14.1 13.2 11.4 84 1.4 SE 7 11 4 6 1018.5 1018.3 0.0
09/10:30pm 14.1 13.1 11.1 82 1.6 SSE 7 9 4 5 1018.8 1018.6 0.0
09/10:00pm 14.6 13.7 11.2 80 1.8 SSE 7 9 4 5 1018.8 1018.6 0.0
09/09:30pm 15.2 14.3 11.2 77 2.1 SE 7 9 4 5 1018.6 1018.4 0.0
09/09:00pm 16.1 14.9 11.7 75 2.4 SE 9 11 5 6 1018.8 1018.6 0.0
09/08:30pm 17.1 15.6 11.8 71 2.9 SSE 11 15 6 8 1018.9 1018.7 0.0
09/08:00pm 17.9 16.0 11.9 68 3.3 SSE 13 19 7 10 1018.9 1018.7 0.0
09/07:30pm 18.3 16.4 11.8 66 3.6 SSE 13 20 7 11 1018.8 1018.6 0.0
09/07:00pm 18.9 16.3 11.9 64 3.9 SSE 17 24 9 13 1018.8 1018.6 0.0
09/06:30pm 19.1 16.5 11.9 63 4.0 SSE 17 24 9 13 1018.8 1018.6 0.0
09/06:00pm 19.8 16.8 12.1 61 4.3 S 19 28 10 15 1018.7 1018.5 0.0
09/05:30pm 20.3 17.5 12.5 61 4.4 SSE 19 28 10 15 1018.8 1018.6 0.0
09/05:00pm 20.6 18.2 12.6 60 4.5 SSE 17 24 9 13 1019.0 1018.8 0.0
09/04:30pm 21.5 19.0 12.4 56 5.2 S 17 28 9 15 1019.3 1019.1 0.0
09/04:00pm 21.6 18.7 12.2 55 5.3 S 19 28 10 15 1019.6 1019.4 0.0
09/03:30pm 22.4 20.0 12.6 54 5.6 SSE 17 28 9 15 1019.8 1019.6 0.0
09/03:00pm 22.1 19.8 11.8 52 5.8 ESE 15 22 8 12 1020.1 1019.9 0.0
09/02:30pm 22.0 19.3 11.7 52 5.8 ESE 17 22 9 12 1020.3 1020.2 0.0
09/02:00pm 22.4 20.3 12.4 53 5.7 SE 15 22 8 12 1020.6 1020.5 0.0
09/01:30pm 20.8 17.7 11.7 56 5.1 SE 19 28 10 15 1021.0 1020.9 0.0
09/01:00pm 21.5 19.1 11.5 53 5.6 ESE 15 26 8 14 1021.1 1021.0 0.0
09/12:30pm 20.3 17.1 11.2 56 5.0 ESE 19 28 10 15 1021.4 1021.3 0.0
09/12:00pm 20.4 17.8 11.9 58 4.7 ESE 17 26 9 14 1021.7 1021.6 0.0
09/11:30am 21.0 18.7 11.6 55 5.2 E 15 22 8 12 1022.0 1021.9 0.0
09/11:00am 20.1 17.3 11.3 57 4.8 ESE 17 26 9 14 1022.1 1022.0 0.0
09/10:30am 20.2 17.5 11.7 58 4.7 E 17 28 9 15 1022.3 1022.2 0.0
09/10:00am 19.1 16.5 11.9 63 4.0 E 17 28 9 15 1022.4 1022.3 0.0
09/09:30am 18.5 15.8 11.8 65 3.7 ESE 17 26 9 14 1022.6 1022.5 0.0
09/09:00am 17.8 15.5 11.6 67 3.4 ESE 15 24 8 13 1022.6 1022.5 0.0
09/08:30am 17.1 14.7 11.4 69 3.1 SE 15 22 8 12 1022.6 1022.5 0.0
09/08:00am 16.7 15.1 11.4 71 2.9 ESE 11 17 6 9 1022.6 1022.5 0.0
09/07:30am 16.3 14.7 11.5 73 2.6 ESE 11 19 6 10 1022.6 1022.5 0.0
09/07:00am 16.3 15.1 11.7 74 2.5 ESE 9 15 5 8 1022.5 1022.4 0.0
09/06:30am 16.3 13.9 11.5 73 2.6 SE 15 22 8 12 1022.3 1022.2 0.0
09/06:00am 16.4 14.4 11.6 73 2.6 SE 13 20 7 11 1022.0 1021.9 0.0
09/05:30am 16.3 13.9 11.5 73 2.6 SE 15 22 8 12 1022.0 1021.9 0.0
09/05:00am 16.4 14.1 11.6 73 2.6 SE 15 22 8 12 1022.0 1021.9 0.0
09/04:30am 16.2 14.7 11.8 75 2.4 ESE 11 19 6 10 1022.0 1021.9 0.0
09/04:00am 15.6 14.0 11.4 76 2.3 ESE 11 15 6 8 1022.2 1022.1 0.0
09/03:30am 15.5 13.5 11.5 77 2.2 SE 13 17 7 9 1022.2 1022.1 0.0
09/03:00am 16.0 14.4 11.4 74 2.5 SE 11 19 6 10 1022.5 1022.4 0.0
09/02:30am 15.8 14.7 11.8 77 2.2 SE 9 13 5 7 1022.9 1022.8 0.0
09/02:00am 15.0 13.7 11.2 78 2.0 SE 9 13 5 7 1023.1 1023.0 0.0
09/01:30am 15.6 13.1 11.2 75 2.4 SE 15 22 8 12 1023.4 1023.3 0.0
09/01:00am 15.6 13.9 11.2 75 2.4 SE 11 17 6 9 1023.6 1023.5 0.0
09/12:30am 16.0 13.5 11.2 73 2.6 SE 15 20 8 11 1023.9 1023.8 0.0
09/12:00am 16.8 14.4 11.5 71 2.9 SE 15 22 8 12 1024.0 1023.9 0.0
 
Date/Time
EDT
Temp
°C
App
Temp
°C
Dew
Point
Rel
Hum
%
Delta-T
°C
Wind Press
QNH
hPa
Press
MSL
hPa
Rain
since 9 am
mm
Dir
 
Spd
km/h
Gust
km/h
Spd
kts
Gust
kts
08/11:30pm 16.9 15.0 11.8 72 2.8 SE 13 19 7 10 1024.3 1024.2 0.0
08/11:00pm 16.2 14.6 11.4 73 2.6 SE 11 15 6 8 1024.5 1024.4 0.0
08/10:30pm 16.8 14.8 11.5 71 2.9 SSE 13 20 7 11 1024.5 1024.4 0.0
08/10:00pm 16.9 15.0 11.8 72 2.8 SSE 13 20 7 11 1024.5 1024.4 0.0

Other Formats:

Comma delimited format used in spreadsheet applications
http://www.bom.gov.au/fwo/IDV60801/IDV60801.94828.axf

JavaScript Object Notation format (JSON) in row-major order
http://www.bom.gov.au/fwo/IDV60801/IDV60801.94828.json